sensor_id;sensor_type;location;lat;lon;timestamp;temperature;humidity
6486;DHT22;3276;48.490;9.222;2022-12-07T00:01:22;4.30;24.90
6486;DHT22;3276;48.490;9.222;2022-12-07T00:03:50;4.40;24.30
6486;DHT22;3276;48.490;9.222;2022-12-07T00:06:17;4.40;24.50
6486;DHT22;3276;48.490;9.222;2022-12-07T00:08:44;4.20;25.10
6486;DHT22;3276;48.490;9.222;2022-12-07T00:11:11;4.10;26.30
6486;DHT22;3276;48.490;9.222;2022-12-07T00:13:38;4.00;26.30
6486;DHT22;3276;48.490;9.222;2022-12-07T00:16:13;4.00;27.00
6486;DHT22;3276;48.490;9.222;2022-12-07T00:18:39;4.10;26.80
6486;DHT22;3276;48.490;9.222;2022-12-07T00:21:08;4.00;26.20
6486;DHT22;3276;48.490;9.222;2022-12-07T00:23:34;4.00;26.70
6486;DHT22;3276;48.490;9.222;2022-12-07T00:26:11;4.10;26.30
6486;DHT22;3276;48.490;9.222;2022-12-07T00:28:37;4.30;26.00
6486;DHT22;3276;48.490;9.222;2022-12-07T00:31:10;4.40;25.30
6486;DHT22;3276;48.490;9.222;2022-12-07T00:33:37;4.40;25.30
6486;DHT22;3276;48.490;9.222;2022-12-07T00:36:09;4.40;25.20
6486;DHT22;3276;48.490;9.222;2022-12-07T00:38:36;4.40;24.70
6486;DHT22;3276;48.490;9.222;2022-12-07T00:41:09;4.20;25.30
6486;DHT22;3276;48.490;9.222;2022-12-07T00:43:34;4.20;25.90
6486;DHT22;3276;48.490;9.222;2022-12-07T00:46:00;4.10;25.40
6486;DHT22;3276;48.490;9.222;2022-12-07T00:48:26;4.20;25.80
6486;DHT22;3276;48.490;9.222;2022-12-07T00:50:52;4.20;25.60
6486;DHT22;3276;48.490;9.222;2022-12-07T00:53:18;4.20;25.70
6486;DHT22;3276;48.490;9.222;2022-12-07T00:55:44;4.20;25.50
6486;DHT22;3276;48.490;9.222;2022-12-07T00:58:10;4.10;25.70
6486;DHT22;3276;48.490;9.222;2022-12-07T01:00:37;4.00;26.20
6486;DHT22;3276;48.490;9.222;2022-12-07T01:03:08;4.10;25.90
6486;DHT22;3276;48.490;9.222;2022-12-07T01:05:34;4.20;25.10
6486;DHT22;3276;48.490;9.222;2022-12-07T01:08:00;4.00;25.50
6486;DHT22;3276;48.490;9.222;2022-12-07T01:10:26;4.00;26.00
6486;DHT22;3276;48.490;9.222;2022-12-07T01:12:51;4.00;26.30
6486;DHT22;3276;48.490;9.222;2022-12-07T01:15:17;4.10;26.30
6486;DHT22;3276;48.490;9.222;2022-12-07T01:17:42;4.10;25.90
6486;DHT22;3276;48.490;9.222;2022-12-07T01:20:08;4.00;26.20
6486;DHT22;3276;48.490;9.222;2022-12-07T01:22:40;4.00;27.30
6486;DHT22;3276;48.490;9.222;2022-12-07T01:25:07;4.00;27.80
6486;DHT22;3276;48.490;9.222;2022-12-07T01:27:33;4.00;27.70
6486;DHT22;3276;48.490;9.222;2022-12-07T01:30:00;4.10;27.50
6486;DHT22;3276;48.490;9.222;2022-12-07T01:32:25;4.10;27.20
6486;DHT22;3276;48.490;9.222;2022-12-07T01:34:51;3.90;27.30
6486;DHT22;3276;48.490;9.222;2022-12-07T01:37:17;3.90;27.70
6486;DHT22;3276;48.490;9.222;2022-12-07T01:39:42;3.90;27.70
6486;DHT22;3276;48.490;9.222;2022-12-07T01:42:10;4.00;27.30
6486;DHT22;3276;48.490;9.222;2022-12-07T01:47:43;4.10;26.90
6486;DHT22;3276;48.490;9.222;2022-12-07T01:50:10;4.10;26.60
6486;DHT22;3276;48.490;9.222;2022-12-07T01:52:37;4.10;26.90
6486;DHT22;3276;48.490;9.222;2022-12-07T01:55:07;4.10;26.90
6486;DHT22;3276;48.490;9.222;2022-12-07T01:57:35;4.10;26.90
6486;DHT22;3276;48.490;9.222;2022-12-07T02:00:04;4.20;26.50
6486;DHT22;3276;48.490;9.222;2022-12-07T02:02:34;4.30;25.60
6486;DHT22;3276;48.490;9.222;2022-12-07T02:05:03;4.30;25.70
6486;DHT22;3276;48.490;9.222;2022-12-07T02:07:29;4.20;25.80
6486;DHT22;3276;48.490;9.222;2022-12-07T02:09:56;4.10;25.70
6486;DHT22;3276;48.490;9.222;2022-12-07T02:12:23;4.20;26.20
6486;DHT22;3276;48.490;9.222;2022-12-07T02:14:50;4.20;26.40
6486;DHT22;3276;48.490;9.222;2022-12-07T02:17:24;4.20;26.60
6486;DHT22;3276;48.490;9.222;2022-12-07T02:23:00;4.00;26.40
6486;DHT22;3276;48.490;9.222;2022-12-07T02:31:37;4.10;26.20
6486;DHT22;3276;48.490;9.222;2022-12-07T02:34:52;4.00;26.60
6486;DHT22;3276;48.490;9.222;2022-12-07T02:37:34;3.90;27.20
6486;DHT22;3276;48.490;9.222;2022-12-07T02:40:32;3.90;27.70
6486;DHT22;3276;48.490;9.222;2022-12-07T02:43:28;3.90;27.70
6486;DHT22;3276;48.490;9.222;2022-12-07T02:46:10;4.00;27.70
6486;DHT22;3276;48.490;9.222;2022-12-07T02:48:37;4.00;27.80
6486;DHT22;3276;48.490;9.222;2022-12-07T02:51:04;4.00;27.70
6486;DHT22;3276;48.490;9.222;2022-12-07T02:53:36;4.00;27.50
6486;DHT22;3276;48.490;9.222;2022-12-07T02:56:15;4.00;27.70
6486;DHT22;3276;48.490;9.222;2022-12-07T02:59:00;4.10;26.80
6486;DHT22;3276;48.490;9.222;2022-12-07T03:01:37;4.10;26.60
6486;DHT22;3276;48.490;9.222;2022-12-07T03:06:54;4.00;26.90
6486;DHT22;3276;48.490;9.222;2022-12-07T03:09:35;4.00;26.50
6486;DHT22;3276;48.490;9.222;2022-12-07T03:12:13;4.00;27.10
6486;DHT22;3276;48.490;9.222;2022-12-07T03:14:56;3.90;27.70
6486;DHT22;3276;48.490;9.222;2022-12-07T03:17:29;4.00;27.70
6486;DHT22;3276;48.490;9.222;2022-12-07T03:19:58;4.00;27.70
6486;DHT22;3276;48.490;9.222;2022-12-07T03:22:28;4.00;27.70
6486;DHT22;3276;48.490;9.222;2022-12-07T03:24:58;4.00;27.30
6486;DHT22;3276;48.490;9.222;2022-12-07T03:27:32;4.00;27.70
6486;DHT22;3276;48.490;9.222;2022-12-07T03:32:37;4.10;27.70
6486;DHT22;3276;48.490;9.222;2022-12-07T03:35:18;4.10;27.30
6486;DHT22;3276;48.490;9.222;2022-12-07T03:40:40;3.90;27.50
6486;DHT22;3276;48.490;9.222;2022-12-07T03:43:10;3.80;27.60
6486;DHT22;3276;48.490;9.222;2022-12-07T03:45:41;3.80;27.60
6486;DHT22;3276;48.490;9.222;2022-12-07T03:48:20;3.70;27.50
6486;DHT22;3276;48.490;9.222;2022-12-07T03:50:55;3.70;26.90
6486;DHT22;3276;48.490;9.222;2022-12-07T03:53:31;3.70;26.60
6486;DHT22;3276;48.490;9.222;2022-12-07T03:55:59;3.80;25.50
6486;DHT22;3276;48.490;9.222;2022-12-07T03:58:25;3.90;25.10
6486;DHT22;3276;48.490;9.222;2022-12-07T04:00:52;3.80;24.60
6486;DHT22;3276;48.490;9.222;2022-12-07T04:03:17;3.70;25.30
6486;DHT22;3276;48.490;9.222;2022-12-07T04:05:43;3.70;25.40
6486;DHT22;3276;48.490;9.222;2022-12-07T04:08:09;3.70;24.70
6486;DHT22;3276;48.490;9.222;2022-12-07T04:10:35;3.70;24.50
6486;DHT22;3276;48.490;9.222;2022-12-07T04:13:00;3.70;24.60
6486;DHT22;3276;48.490;9.222;2022-12-07T04:15:26;3.70;24.80
6486;DHT22;3276;48.490;9.222;2022-12-07T04:17:52;3.80;24.80
6486;DHT22;3276;48.490;9.222;2022-12-07T04:20:18;3.80;25.20
6486;DHT22;3276;48.490;9.222;2022-12-07T04:22:43;3.80;24.30
6486;DHT22;3276;48.490;9.222;2022-12-07T04:25:09;3.80;24.50
6486;DHT22;3276;48.490;9.222;2022-12-07T04:27:35;3.80;24.80
6486;DHT22;3276;48.490;9.222;2022-12-07T04:30:00;3.80;24.50
6486;DHT22;3276;48.490;9.222;2022-12-07T04:32:26;3.90;24.20
6486;DHT22;3276;48.490;9.222;2022-12-07T04:34:51;3.80;24.00
6486;DHT22;3276;48.490;9.222;2022-12-07T04:37:17;3.60;24.30
6486;DHT22;3276;48.490;9.222;2022-12-07T04:39:43;3.50;25.50
6486;DHT22;3276;48.490;9.222;2022-12-07T04:42:10;3.40;26.50
6486;DHT22;3276;48.490;9.222;2022-12-07T04:44:36;3.30;27.00
6486;DHT22;3276;48.490;9.222;2022-12-07T04:47:02;3.30;27.30
6486;DHT22;3276;48.490;9.222;2022-12-07T04:49:28;3.40;27.30
6486;DHT22;3276;48.490;9.222;2022-12-07T04:51:53;3.40;27.30
6486;DHT22;3276;48.490;9.222;2022-12-07T04:54:19;3.40;27.30
6486;DHT22;3276;48.490;9.222;2022-12-07T04:56:45;3.40;27.30
6486;DHT22;3276;48.490;9.222;2022-12-07T04:59:11;3.40;27.30
6486;DHT22;3276;48.490;9.222;2022-12-07T05:01:38;3.50;26.80
6486;DHT22;3276;48.490;9.222;2022-12-07T05:04:03;3.50;26.10
6486;DHT22;3276;48.490;9.222;2022-12-07T05:06:29;3.50;25.90
6486;DHT22;3276;48.490;9.222;2022-12-07T05:08:55;3.50;25.80
6486;DHT22;3276;48.490;9.222;2022-12-07T05:11:20;3.40;26.20
6486;DHT22;3276;48.490;9.222;2022-12-07T05:14:18;3.40;26.30
6486;DHT22;3276;48.490;9.222;2022-12-07T05:16:46;3.30;26.60
6486;DHT22;3276;48.490;9.222;2022-12-07T05:19:11;3.30;27.30
6486;DHT22;3276;48.490;9.222;2022-12-07T05:21:37;3.20;27.20
6486;DHT22;3276;48.490;9.222;2022-12-07T05:24:04;3.10;27.20
6486;DHT22;3276;48.490;9.222;2022-12-07T05:26:30;3.00;27.80
6486;DHT22;3276;48.490;9.222;2022-12-07T05:28:56;2.90;28.20
6486;DHT22;3276;48.490;9.222;2022-12-07T05:31:22;2.90;28.30
6486;DHT22;3276;48.490;9.222;2022-12-07T05:33:48;2.80;28.40
6486;DHT22;3276;48.490;9.222;2022-12-07T05:36:14;2.80;28.50
6486;DHT22;3276;48.490;9.222;2022-12-07T05:38:40;2.80;28.60
6486;DHT22;3276;48.490;9.222;2022-12-07T05:41:06;2.80;28.50
6486;DHT22;3276;48.490;9.222;2022-12-07T05:43:33;2.80;28.70
6486;DHT22;3276;48.490;9.222;2022-12-07T05:45:59;2.70;28.90
6486;DHT22;3276;48.490;9.222;2022-12-07T05:48:25;2.70;28.90
6486;DHT22;3276;48.490;9.222;2022-12-07T05:50:51;2.60;29.20
6486;DHT22;3276;48.490;9.222;2022-12-07T05:53:18;2.60;28.70
6486;DHT22;3276;48.490;9.222;2022-12-07T05:55:43;2.40;28.60
6486;DHT22;3276;48.490;9.222;2022-12-07T05:58:10;2.30;29.50
6486;DHT22;3276;48.490;9.222;2022-12-07T06:00:56;2.20;29.40
6486;DHT22;3276;48.490;9.222;2022-12-07T06:03:23;2.10;30.00
6486;DHT22;3276;48.490;9.222;2022-12-07T06:05:48;2.00;30.50
6486;DHT22;3276;48.490;9.222;2022-12-07T06:08:14;1.90;30.80
6486;DHT22;3276;48.490;9.222;2022-12-07T06:10:42;1.90;31.20
6486;DHT22;3276;48.490;9.222;2022-12-07T06:13:11;1.80;32.20
6486;DHT22;3276;48.490;9.222;2022-12-07T06:15:36;1.70;32.00
6486;DHT22;3276;48.490;9.222;2022-12-07T06:18:02;1.60;33.10
6486;DHT22;3276;48.490;9.222;2022-12-07T06:20:28;1.60;33.20
6486;DHT22;3276;48.490;9.222;2022-12-07T06:22:53;1.40;34.10
6486;DHT22;3276;48.490;9.222;2022-12-07T06:25:19;1.40;35.10
6486;DHT22;3276;48.490;9.222;2022-12-07T06:27:44;1.30;35.10
6486;DHT22;3276;48.490;9.222;2022-12-07T06:30:10;1.20;35.00
6486;DHT22;3276;48.490;9.222;2022-12-07T06:32:36;1.10;34.90
6486;DHT22;3276;48.490;9.222;2022-12-07T06:35:03;1.10;34.90
6486;DHT22;3276;48.490;9.222;2022-12-07T06:37:28;1.00;34.80
6486;DHT22;3276;48.490;9.222;2022-12-07T06:39:54;0.90;34.70
6486;DHT22;3276;48.490;9.222;2022-12-07T06:42:19;0.90;34.70
6486;DHT22;3276;48.490;9.222;2022-12-07T06:44:45;0.90;34.70
6486;DHT22;3276;48.490;9.222;2022-12-07T06:47:10;0.90;36.20
6486;DHT22;3276;48.490;9.222;2022-12-07T06:49:36;0.90;35.70
6486;DHT22;3276;48.490;9.222;2022-12-07T06:52:02;0.90;36.10
6486;DHT22;3276;48.490;9.222;2022-12-07T06:54:30;0.90;34.70
6486;DHT22;3276;48.490;9.222;2022-12-07T06:56:58;0.90;36.50
6486;DHT22;3276;48.490;9.222;2022-12-07T06:59:24;1.00;36.60
6486;DHT22;3276;48.490;9.222;2022-12-07T07:01:49;1.10;36.00
6486;DHT22;3276;48.490;9.222;2022-12-07T07:04:15;1.10;35.60
6486;DHT22;3276;48.490;9.222;2022-12-07T07:06:41;1.10;33.40
6486;DHT22;3276;48.490;9.222;2022-12-07T07:09:06;1.10;33.20
6486;DHT22;3276;48.490;9.222;2022-12-07T07:11:32;1.10;32.80
6486;DHT22;3276;48.490;9.222;2022-12-07T07:13:57;1.20;32.50
6486;DHT22;3276;48.490;9.222;2022-12-07T07:16:27;1.30;31.50
6486;DHT22;3276;48.490;9.222;2022-12-07T07:18:53;1.40;32.00
6486;DHT22;3276;48.490;9.222;2022-12-07T07:21:19;1.50;31.60
6486;DHT22;3276;48.490;9.222;2022-12-07T07:23:44;1.60;31.60
6486;DHT22;3276;48.490;9.222;2022-12-07T07:26:10;1.60;31.90
6486;DHT22;3276;48.490;9.222;2022-12-07T07:28:35;1.70;30.90
6486;DHT22;3276;48.490;9.222;2022-12-07T07:31:01;1.80;30.30
6486;DHT22;3276;48.490;9.222;2022-12-07T07:33:27;1.90;29.60
6486;DHT22;3276;48.490;9.222;2022-12-07T07:35:52;1.90;30.00
6486;DHT22;3276;48.490;9.222;2022-12-07T07:38:18;2.00;30.40
6486;DHT22;3276;48.490;9.222;2022-12-07T07:40:43;2.10;28.80
6486;DHT22;3276;48.490;9.222;2022-12-07T07:43:09;2.20;28.80
6486;DHT22;3276;48.490;9.222;2022-12-07T07:45:35;2.30;28.90
6486;DHT22;3276;48.490;9.222;2022-12-07T07:48:00;2.40;28.60
6486;DHT22;3276;48.490;9.222;2022-12-07T07:50:26;2.50;27.90
6486;DHT22;3276;48.490;9.222;2022-12-07T07:52:52;2.60;27.30
6486;DHT22;3276;48.490;9.222;2022-12-07T07:55:17;2.70;27.50
6486;DHT22;3276;48.490;9.222;2022-12-07T07:57:43;2.70;26.80
6486;DHT22;3276;48.490;9.222;2022-12-07T08:00:13;2.70;26.10
6486;DHT22;3276;48.490;9.222;2022-12-07T08:02:40;2.80;26.50
6486;DHT22;3276;48.490;9.222;2022-12-07T08:05:06;2.90;26.00
6486;DHT22;3276;48.490;9.222;2022-12-07T08:07:32;2.80;25.40
6486;DHT22;3276;48.490;9.222;2022-12-07T08:09:57;2.90;25.20
6486;DHT22;3276;48.490;9.222;2022-12-07T08:12:23;2.90;24.70
6486;DHT22;3276;48.490;9.222;2022-12-07T08:14:48;3.00;24.50
6486;DHT22;3276;48.490;9.222;2022-12-07T08:17:14;3.00;23.60
6486;DHT22;3276;48.490;9.222;2022-12-07T08:19:39;3.00;23.00
6486;DHT22;3276;48.490;9.222;2022-12-07T08:22:05;3.00;23.10
6486;DHT22;3276;48.490;9.222;2022-12-07T08:24:33;3.20;23.10
6486;DHT22;3276;48.490;9.222;2022-12-07T08:26:59;3.10;23.10
6486;DHT22;3276;48.490;9.222;2022-12-07T08:29:25;3.10;23.20
6486;DHT22;3276;48.490;9.222;2022-12-07T08:31:50;3.10;23.40
6486;DHT22;3276;48.490;9.222;2022-12-07T08:34:16;3.20;23.80
6486;DHT22;3276;48.490;9.222;2022-12-07T08:36:42;3.30;23.20
6486;DHT22;3276;48.490;9.222;2022-12-07T08:39:07;3.40;22.40
6486;DHT22;3276;48.490;9.222;2022-12-07T08:41:33;3.50;21.70
6486;DHT22;3276;48.490;9.222;2022-12-07T08:43:59;3.60;21.40
6486;DHT22;3276;48.490;9.222;2022-12-07T08:49:16;4.00;20.50
6486;DHT22;3276;48.490;9.222;2022-12-07T08:51:44;4.10;19.60
6486;DHT22;3276;48.490;9.222;2022-12-07T08:54:15;4.10;19.60
6486;DHT22;3276;48.490;9.222;2022-12-07T08:56:42;4.20;19.00
6486;DHT22;3276;48.490;9.222;2022-12-07T08:59:08;4.30;18.90
6486;DHT22;3276;48.490;9.222;2022-12-07T09:01:34;4.30;18.70
6486;DHT22;3276;48.490;9.222;2022-12-07T09:03:59;4.40;19.10
6486;DHT22;3276;48.490;9.222;2022-12-07T09:06:25;4.50;18.30
6486;DHT22;3276;48.490;9.222;2022-12-07T09:08:54;4.70;18.00
6486;DHT22;3276;48.490;9.222;2022-12-07T09:11:20;4.80;17.00
6486;DHT22;3276;48.490;9.222;2022-12-07T09:13:46;4.90;17.40
6486;DHT22;3276;48.490;9.222;2022-12-07T09:16:12;5.00;16.30
6486;DHT22;3276;48.490;9.222;2022-12-07T09:18:37;5.10;16.20
6486;DHT22;3276;48.490;9.222;2022-12-07T09:21:03;4.90;15.80
6486;DHT22;3276;48.490;9.222;2022-12-07T09:23:29;4.90;15.80
6486;DHT22;3276;48.490;9.222;2022-12-07T09:25:55;5.10;15.60
6486;DHT22;3276;48.490;9.222;2022-12-07T09:28:23;5.00;16.20
6486;DHT22;3276;48.490;9.222;2022-12-07T09:30:49;5.20;16.00
6486;DHT22;3276;48.490;9.222;2022-12-07T09:33:15;5.20;16.00
6486;DHT22;3276;48.490;9.222;2022-12-07T09:35:48;5.00;15.90
6486;DHT22;3276;48.490;9.222;2022-12-07T09:38:14;5.30;16.10
6486;DHT22;3276;48.490;9.222;2022-12-07T09:40:40;5.30;15.60
6486;DHT22;3276;48.490;9.222;2022-12-07T09:43:19;5.40;15.80
6486;DHT22;3276;48.490;9.222;2022-12-07T09:45:47;5.60;15.30
6486;DHT22;3276;48.490;9.222;2022-12-07T09:48:22;5.70;14.70
6486;DHT22;3276;48.490;9.222;2022-12-07T09:50:50;5.80;14.70
6486;DHT22;3276;48.490;9.222;2022-12-07T09:53:36;5.90;14.60
6486;DHT22;3276;48.490;9.222;2022-12-07T09:56:03;5.80;14.90
6486;DHT22;3276;48.490;9.222;2022-12-07T09:58:30;5.60;14.50
6486;DHT22;3276;48.490;9.222;2022-12-07T10:03:27;5.60;14.20
6486;DHT22;3276;48.490;9.222;2022-12-07T10:05:54;5.80;13.30
6486;DHT22;3276;48.490;9.222;2022-12-07T10:08:20;6.00;13.60
6486;DHT22;3276;48.490;9.222;2022-12-07T10:10:50;6.20;13.60
6486;DHT22;3276;48.490;9.222;2022-12-07T10:13:20;6.40;13.20
6486;DHT22;3276;48.490;9.222;2022-12-07T10:15:51;6.20;12.40
6486;DHT22;3276;48.490;9.222;2022-12-07T10:23:27;5.90;12.20
6486;DHT22;3276;48.490;9.222;2022-12-07T10:25:52;5.60;12.00
6486;DHT22;3276;48.490;9.222;2022-12-07T10:28:20;5.80;12.10
6486;DHT22;3276;48.490;9.222;2022-12-07T10:30:57;5.90;11.70
6486;DHT22;3276;48.490;9.222;2022-12-07T10:33:48;5.90;11.70
6486;DHT22;3276;48.490;9.222;2022-12-07T10:39:00;5.90;11.10
6486;DHT22;3276;48.490;9.222;2022-12-07T10:41:26;5.90;11.60
6486;DHT22;3276;48.490;9.222;2022-12-07T10:43:54;6.20;10.70
6486;DHT22;3276;48.490;9.222;2022-12-07T10:49:36;6.40;9.80
6486;DHT22;3276;48.490;9.222;2022-12-07T10:57:55;6.20;9.10
6486;DHT22;3276;48.490;9.222;2022-12-07T11:03:51;6.20;9.80
6486;DHT22;3276;48.490;9.222;2022-12-07T11:09:41;6.10;9.90
6486;DHT22;3276;48.490;9.222;2022-12-07T11:11:59;6.30;9.60
6486;DHT22;3276;48.490;9.222;2022-12-07T11:14:36;6.20;10.50
6486;DHT22;3276;48.490;9.222;2022-12-07T11:17:20;6.30;10.40
6486;DHT22;3276;48.490;9.222;2022-12-07T11:20:11;6.00;11.10
6486;DHT22;3276;48.490;9.222;2022-12-07T11:22:58;6.30;10.40
6486;DHT22;3276;48.490;9.222;2022-12-07T11:25:44;6.60;10.20
6486;DHT22;3276;48.490;9.222;2022-12-07T11:31:03;6.70;9.60
6486;DHT22;3276;48.490;9.222;2022-12-07T11:33:49;6.70;9.60
6486;DHT22;3276;48.490;9.222;2022-12-07T11:36:44;6.90;8.70
6486;DHT22;3276;48.490;9.222;2022-12-07T11:39:26;7.00;8.50
6486;DHT22;3276;48.490;9.222;2022-12-07T11:42:00;6.80;8.60
6486;DHT22;3276;48.490;9.222;2022-12-07T11:44:47;6.80;8.40
6486;DHT22;3276;48.490;9.222;2022-12-07T11:52:58;6.50;9.30
6486;DHT22;3276;48.490;9.222;2022-12-07T11:58:04;6.40;10.40
6486;DHT22;3276;48.490;9.222;2022-12-07T12:00:34;6.70;9.70
6486;DHT22;3276;48.490;9.222;2022-12-07T12:03:12;6.80;9.60
6486;DHT22;3276;48.490;9.222;2022-12-07T12:05:40;6.80;9.30
6486;DHT22;3276;48.490;9.222;2022-12-07T12:08:16;6.80;9.00
6486;DHT22;3276;48.490;9.222;2022-12-07T12:19:22;6.30;10.70
6486;DHT22;3276;48.490;9.222;2022-12-07T12:21:56;6.40;10.20
6486;DHT22;3276;48.490;9.222;2022-12-07T12:24:26;6.50;10.20
6486;DHT22;3276;48.490;9.222;2022-12-07T12:27:02;6.40;10.30
6486;DHT22;3276;48.490;9.222;2022-12-07T12:29:36;6.40;9.90
6486;DHT22;3276;48.490;9.222;2022-12-07T12:32:15;6.60;10.20
6486;DHT22;3276;48.490;9.222;2022-12-07T12:42:53;6.50;9.90
6486;DHT22;3276;48.490;9.222;2022-12-07T12:45:25;6.40;10.70
6486;DHT22;3276;48.490;9.222;2022-12-07T12:48:07;6.80;9.60
6486;DHT22;3276;48.490;9.222;2022-12-07T12:54:04;6.80;8.70
6486;DHT22;3276;48.490;9.222;2022-12-07T12:57:27;6.70;9.50
6486;DHT22;3276;48.490;9.222;2022-12-07T12:59:30;6.70;9.80
6486;DHT22;3276;48.490;9.222;2022-12-07T13:15:44;6.40;9.70
6486;DHT22;3276;48.490;9.222;2022-12-07T13:18:35;6.40;9.90
6486;DHT22;3276;48.490;9.222;2022-12-07T13:26:38;6.30;11.00
6486;DHT22;3276;48.490;9.222;2022-12-07T13:29:17;6.30;11.10
6486;DHT22;3276;48.490;9.222;2022-12-07T13:31:49;6.40;10.90
6486;DHT22;3276;48.490;9.222;2022-12-07T13:34:34;6.40;10.80
6486;DHT22;3276;48.490;9.222;2022-12-07T13:37:08;6.20;11.00
6486;DHT22;3276;48.490;9.222;2022-12-07T13:39:45;6.30;11.60
6486;DHT22;3276;48.490;9.222;2022-12-07T13:42:28;6.50;11.40
6486;DHT22;3276;48.490;9.222;2022-12-07T13:44:54;6.50;10.90
6486;DHT22;3276;48.490;9.222;2022-12-07T13:47:39;6.40;11.10
6486;DHT22;3276;48.490;9.222;2022-12-07T13:50:27;6.20;10.90
6486;DHT22;3276;48.490;9.222;2022-12-07T13:52:57;6.30;11.50
6486;DHT22;3276;48.490;9.222;2022-12-07T13:55:23;6.20;11.90
6486;DHT22;3276;48.490;9.222;2022-12-07T13:57:51;6.20;11.90
6486;DHT22;3276;48.490;9.222;2022-12-07T14:00:20;6.30;11.40
6486;DHT22;3276;48.490;9.222;2022-12-07T14:02:58;6.20;11.80
6486;DHT22;3276;48.490;9.222;2022-12-07T14:05:29;6.20;11.90
6486;DHT22;3276;48.490;9.222;2022-12-07T14:10:37;6.30;11.40
6486;DHT22;3276;48.490;9.222;2022-12-07T14:15:50;6.30;11.70
6486;DHT22;3276;48.490;9.222;2022-12-07T14:18:37;6.30;11.70
6486;DHT22;3276;48.490;9.222;2022-12-07T14:21:17;6.20;12.40
6486;DHT22;3276;48.490;9.222;2022-12-07T14:23:44;6.20;12.40
6486;DHT22;3276;48.490;9.222;2022-12-07T14:26:13;6.10;12.30
6486;DHT22;3276;48.490;9.222;2022-12-07T14:28:43;5.90;12.20
6486;DHT22;3276;48.490;9.222;2022-12-07T14:31:17;5.80;12.10
6486;DHT22;3276;48.490;9.222;2022-12-07T14:33:43;5.90;12.50
6486;DHT22;3276;48.490;9.222;2022-12-07T14:36:14;5.80;12.10
6486;DHT22;3276;48.490;9.222;2022-12-07T14:38:40;5.70;13.10
6486;DHT22;3276;48.490;9.222;2022-12-07T14:41:12;5.70;13.40
6486;DHT22;3276;48.490;9.222;2022-12-07T14:43:57;5.70;13.30
6486;DHT22;3276;48.490;9.222;2022-12-07T14:46:23;5.60;13.50
6486;DHT22;3276;48.490;9.222;2022-12-07T14:48:48;5.60;13.40
6486;DHT22;3276;48.490;9.222;2022-12-07T14:51:14;5.50;13.30
6486;DHT22;3276;48.490;9.222;2022-12-07T14:53:43;5.50;13.70
6486;DHT22;3276;48.490;9.222;2022-12-07T14:56:10;5.20;14.10
6486;DHT22;3276;48.490;9.222;2022-12-07T14:58:35;5.20;14.70
6486;DHT22;3276;48.490;9.222;2022-12-07T15:01:01;5.20;15.30
6486;DHT22;3276;48.490;9.222;2022-12-07T15:03:26;5.30;14.80
6486;DHT22;3276;48.490;9.222;2022-12-07T15:05:52;5.40;14.70
6486;DHT22;3276;48.490;9.222;2022-12-07T15:08:18;5.30;14.80
6486;DHT22;3276;48.490;9.222;2022-12-07T15:10:43;5.30;14.40
6486;DHT22;3276;48.490;9.222;2022-12-07T15:13:09;5.40;14.40
6486;DHT22;3276;48.490;9.222;2022-12-07T15:15:54;5.40;14.40
6486;DHT22;3276;48.490;9.222;2022-12-07T15:18:20;5.40;14.70
6486;DHT22;3276;48.490;9.222;2022-12-07T15:20:46;5.40;15.00
6486;DHT22;3276;48.490;9.222;2022-12-07T15:23:12;5.30;14.90
6486;DHT22;3276;48.490;9.222;2022-12-07T15:25:47;5.40;15.20
6486;DHT22;3276;48.490;9.222;2022-12-07T15:28:13;5.40;15.30
6486;DHT22;3276;48.490;9.222;2022-12-07T15:30:40;5.30;15.10
6486;DHT22;3276;48.490;9.222;2022-12-07T15:33:06;5.30;15.20
6486;DHT22;3276;48.490;9.222;2022-12-07T15:35:31;5.30;14.90
6486;DHT22;3276;48.490;9.222;2022-12-07T15:37:57;5.30;15.10
6486;DHT22;3276;48.490;9.222;2022-12-07T15:40:22;5.20;15.50
6486;DHT22;3276;48.490;9.222;2022-12-07T15:42:48;5.20;15.70
6486;DHT22;3276;48.490;9.222;2022-12-07T15:45:13;5.20;15.70
6486;DHT22;3276;48.490;9.222;2022-12-07T15:47:41;5.10;15.80
6486;DHT22;3276;48.490;9.222;2022-12-07T15:50:11;5.20;16.00
6486;DHT22;3276;48.490;9.222;2022-12-07T15:52:37;5.30;15.80
6486;DHT22;3276;48.490;9.222;2022-12-07T15:55:03;5.30;16.10
6486;DHT22;3276;48.490;9.222;2022-12-07T15:57:30;5.20;15.40
6486;DHT22;3276;48.490;9.222;2022-12-07T15:59:56;5.00;15.90
6486;DHT22;3276;48.490;9.222;2022-12-07T16:02:22;4.90;15.80
6486;DHT22;3276;48.490;9.222;2022-12-07T16:04:48;4.90;16.10
6486;DHT22;3276;48.490;9.222;2022-12-07T16:07:14;4.90;16.50
6486;DHT22;3276;48.490;9.222;2022-12-07T16:09:42;4.80;16.90
6486;DHT22;3276;48.490;9.222;2022-12-07T16:12:07;4.70;17.60
6486;DHT22;3276;48.490;9.222;2022-12-07T16:14:33;4.60;17.30
6486;DHT22;3276;48.490;9.222;2022-12-07T16:16:59;4.60;17.80
6486;DHT22;3276;48.490;9.222;2022-12-07T16:19:24;4.50;18.10
6486;DHT22;3276;48.490;9.222;2022-12-07T16:21:50;4.50;18.30
6486;DHT22;3276;48.490;9.222;2022-12-07T16:24:16;4.50;18.20
6486;DHT22;3276;48.490;9.222;2022-12-07T16:26:42;4.40;18.60
6486;DHT22;3276;48.490;9.222;2022-12-07T16:29:11;4.50;18.80
6486;DHT22;3276;48.490;9.222;2022-12-07T16:31:37;4.50;19.00
6486;DHT22;3276;48.490;9.222;2022-12-07T16:34:03;4.40;18.90
6486;DHT22;3276;48.490;9.222;2022-12-07T16:36:28;4.40;19.40
6486;DHT22;3276;48.490;9.222;2022-12-07T16:38:54;4.30;19.10
6486;DHT22;3276;48.490;9.222;2022-12-07T16:41:20;4.30;19.70
6486;DHT22;3276;48.490;9.222;2022-12-07T16:43:45;4.40;19.40
6486;DHT22;3276;48.490;9.222;2022-12-07T16:46:11;4.30;19.10
6486;DHT22;3276;48.490;9.222;2022-12-07T16:48:38;4.30;19.70
6486;DHT22;3276;48.490;9.222;2022-12-07T16:51:09;4.20;19.60
6486;DHT22;3276;48.490;9.222;2022-12-07T16:53:36;4.20;19.60
6486;DHT22;3276;48.490;9.222;2022-12-07T16:56:03;4.10;19.60
6486;DHT22;3276;48.490;9.222;2022-12-07T16:58:28;4.10;19.60
6486;DHT22;3276;48.490;9.222;2022-12-07T17:00:54;4.10;19.60
6486;DHT22;3276;48.490;9.222;2022-12-07T17:03:20;4.10;19.60
6486;DHT22;3276;48.490;9.222;2022-12-07T17:05:46;4.00;19.60
6486;DHT22;3276;48.490;9.222;2022-12-07T17:08:13;4.10;20.20
6486;DHT22;3276;48.490;9.222;2022-12-07T17:10:42;4.00;19.90
6486;DHT22;3276;48.490;9.222;2022-12-07T17:13:08;4.00;19.90
6486;DHT22;3276;48.490;9.222;2022-12-07T17:16:01;3.90;20.30
6486;DHT22;3276;48.490;9.222;2022-12-07T17:18:29;3.90;20.50
6486;DHT22;3276;48.490;9.222;2022-12-07T17:20:55;3.80;21.00
6486;DHT22;3276;48.490;9.222;2022-12-07T17:23:21;3.80;20.90
6486;DHT22;3276;48.490;9.222;2022-12-07T17:25:47;3.70;21.40
6486;DHT22;3276;48.490;9.222;2022-12-07T17:28:12;3.70;21.40
6486;DHT22;3276;48.490;9.222;2022-12-07T17:30:38;3.80;21.80
6486;DHT22;3276;48.490;9.222;2022-12-07T17:33:04;3.80;22.00
6486;DHT22;3276;48.490;9.222;2022-12-07T17:35:30;3.80;22.00
6486;DHT22;3276;48.490;9.222;2022-12-07T17:37:55;3.90;22.20
6486;DHT22;3276;48.490;9.222;2022-12-07T17:40:21;3.90;22.10
6486;DHT22;3276;48.490;9.222;2022-12-07T17:42:47;3.90;21.50
6486;DHT22;3276;48.490;9.222;2022-12-07T17:45:16;3.80;21.20
6486;DHT22;3276;48.490;9.222;2022-12-07T17:47:42;3.70;21.60
6486;DHT22;3276;48.490;9.222;2022-12-07T17:50:08;3.80;21.80
6486;DHT22;3276;48.490;9.222;2022-12-07T17:52:37;3.80;21.60
6486;DHT22;3276;48.490;9.222;2022-12-07T17:55:22;3.80;21.50
6486;DHT22;3276;48.490;9.222;2022-12-07T17:57:47;3.80;21.50
6486;DHT22;3276;48.490;9.222;2022-12-07T18:00:13;3.80;21.60
6486;DHT22;3276;48.490;9.222;2022-12-07T18:02:39;3.80;21.50
6486;DHT22;3276;48.490;9.222;2022-12-07T18:05:05;3.80;22.00
6486;DHT22;3276;48.490;9.222;2022-12-07T18:07:31;3.80;21.90
6486;DHT22;3276;48.490;9.222;2022-12-07T18:09:56;3.80;21.30
6486;DHT22;3276;48.490;9.222;2022-12-07T18:12:22;3.90;21.40
6486;DHT22;3276;48.490;9.222;2022-12-07T18:14:48;3.90;21.70
6486;DHT22;3276;48.490;9.222;2022-12-07T18:17:16;3.90;21.20